Time;durP1;ratioP1;P1;durP2;ratioP2;P2;SDS_P1;SDS_P2;PMS_P1;PMS_P2;Temp;Humidity;BMP_temperature;BMP_pressure;BME280_temperature;BME280_humidity;BME280_pressure;Samples;Min_cycle;Max_cycle;Signal;HPM_P1;HPM_P2
2022/11/25 00:01:17;;;;;;;18.77;6.30;;;7.00;99.90;;;;;;5016354;28;20204;-72
2022/11/25 00:03:44;;;;;;;31.60;6.65;;;7.00;99.90;;;;;;5016151;28;20374;-72
2022/11/25 00:06:14;;;;;;;28.00;6.78;;;7.00;99.90;;;;;;5015385;28;20192;-73
2022/11/25 00:08:41;;;;;;;30.13;7.22;;;7.10;99.90;;;;;;5016103;28;20042;-72
2022/11/25 00:11:08;;;;;;;28.55;7.85;;;7.10;99.90;;;;;;5016349;28;20046;-72
2022/11/25 00:13:34;;;;;;;31.52;6.32;;;7.10;99.90;;;;;;5015881;28;20121;-72
2022/11/25 00:16:01;;;;;;;26.55;6.18;;;7.10;99.90;;;;;;5016595;28;20125;-72
2022/11/25 00:18:27;;;;;;;23.75;5.72;;;7.10;99.90;;;;;;5016011;28;20077;-72
2022/11/25 00:20:52;;;;;;;27.50;6.50;;;7.10;99.90;;;;;;5015514;28;20079;-72
2022/11/25 00:23:18;;;;;;;31.35;8.30;;;7.10;99.90;;;;;;5015729;28;20053;-72
2022/11/25 00:25:43;;;;;;;27.88;6.20;;;7.10;99.90;;;;;;5015778;28;20042;-72
2022/11/25 00:28:09;;;;;;;28.30;8.30;;;7.10;99.90;;;;;;5016373;28;20060;-72
2022/11/25 00:30:35;;;;;;;28.13;8.15;;;7.10;99.90;;;;;;5015731;28;20446;-72
2022/11/25 00:33:00;;;;;;;28.95;6.70;;;7.10;99.90;;;;;;5015795;28;20128;-72
2022/11/25 00:35:26;;;;;;;28.65;9.52;;;7.10;99.90;;;;;;5015242;28;20060;-72
2022/11/25 00:37:51;;;;;;;22.80;6.68;;;7.10;99.90;;;;;;5015423;28;20042;-72
2022/11/25 00:40:17;;;;;;;25.73;6.63;;;7.10;99.90;;;;;;5015546;28;20046;-72
2022/11/25 00:45:27;;;;;;;23.77;6.10;;;7.30;99.90;;;;;;5015709;28;20093;-72
2022/11/25 00:47:53;;;;;;;31.13;7.18;;;7.20;99.90;;;;;;5015529;28;20073;-72
2022/11/25 00:50:18;;;;;;;22.77;6.25;;;7.10;99.90;;;;;;5015687;28;20065;-72
2022/11/25 00:52:44;;;;;;;27.33;6.72;;;7.10;99.90;;;;;;5015376;28;20122;-72
2022/11/25 00:55:09;;;;;;;24.48;6.20;;;7.20;99.90;;;;;;5015112;28;20394;-72
2022/11/25 00:57:35;;;;;;;29.30;6.53;;;7.10;99.90;;;;;;5015347;28;20128;-73
2022/11/25 01:00:01;;;;;;;26.15;6.38;;;7.10;99.90;;;;;;5015408;28;20034;-72
2022/11/25 01:02:26;;;;;;;21.65;6.47;;;7.10;99.90;;;;;;5015528;28;20061;-72
2022/11/25 01:04:52;;;;;;;25.38;5.93;;;7.10;99.90;;;;;;5015308;28;20050;-72
2022/11/25 01:07:18;;;;;;;26.98;6.30;;;7.20;99.90;;;;;;5014878;28;20070;-72
2022/11/25 01:09:43;;;;;;;25.58;6.55;;;7.10;99.90;;;;;;5015615;28;20061;-72
2022/11/25 01:12:09;;;;;;;23.98;5.95;;;7.20;99.90;;;;;;5015452;28;20053;-72
2022/11/25 01:14:35;;;;;;;22.73;6.30;;;7.20;99.90;;;;;;5015542;28;20073;-73
2022/11/25 01:17:00;;;;;;;26.77;7.32;;;7.10;99.90;;;;;;5015358;28;20458;-72
2022/11/25 01:19:26;;;;;;;26.13;6.65;;;7.20;99.90;;;;;;5018113;28;20041;-73
2022/11/25 01:21:51;;;;;;;28.02;6.35;;;7.30;99.90;;;;;;4983218;28;20198;-73
2022/11/25 01:24:17;;;;;;;30.42;6.22;;;7.30;99.90;;;;;;4999613;28;20042;-72
2022/11/25 01:26:44;;;;;;;25.52;7.95;;;7.30;99.90;;;;;;4999548;28;20042;-72
2022/11/25 01:29:16;;;;;;;30.63;6.88;;;7.20;99.90;;;;;;4999496;28;20142;-72
2022/11/25 01:31:42;;;;;;;26.35;6.78;;;7.20;99.90;;;;;;4999588;28;20057;-72
2022/11/25 01:34:19;;;;;;;24.95;7.10;;;7.20;99.90;;;;;;4999219;28;20038;-72
2022/11/25 01:36:45;;;;;;;20.88;5.63;;;7.20;99.90;;;;;;4999040;28;20447;-71
2022/11/25 01:39:19;;;;;;;30.27;7.05;;;7.20;99.90;;;;;;4999857;28;20384;-72
2022/11/25 01:41:45;;;;;;;27.60;6.63;;;7.20;99.90;;;;;;4999210;28;20042;-72
2022/11/25 01:44:20;;;;;;;25.90;6.88;;;7.20;99.90;;;;;;4999926;28;20069;-72
2022/11/25 01:47:10;;;;;;;25.40;6.00;;;7.20;99.90;;;;;;4999001;28;20061;-72
2022/11/25 01:49:57;;;;;;;27.95;7.80;;;7.20;99.90;;;;;;4999085;28;20447;-72
2022/11/25 01:52:28;;;;;;;25.58;6.85;;;7.20;99.90;;;;;;4999033;28;20038;-72
2022/11/25 01:54:59;;;;;;;21.20;5.90;;;7.20;99.90;;;;;;4998990;28;20453;-72
2022/11/25 01:57:49;;;;;;;22.17;6.40;;;7.20;99.90;;;;;;4998787;28;20066;-71
2022/11/25 02:00:16;;;;;;;30.08;6.75;;;7.30;99.90;;;;;;4998865;28;20461;-72
2022/11/25 02:02:42;;;;;;;21.45;6.32;;;7.20;99.90;;;;;;4999010;28;20042;-72
2022/11/25 02:05:12;;;;;;;27.33;6.55;;;7.30;99.90;;;;;;4998259;28;20038;-72
2022/11/25 02:07:41;;;;;;;26.63;7.28;;;7.30;99.90;;;;;;4998715;28;20058;-71
2022/11/25 02:10:13;;;;;;;32.75;6.75;;;7.30;99.90;;;;;;4999257;28;20054;-72
2022/11/25 02:12:40;;;;;;;29.42;6.35;;;7.30;99.90;;;;;;4998896;28;20058;-71
2022/11/25 02:15:07;;;;;;;31.88;6.13;;;7.40;99.90;;;;;;4998779;28;20336;-72
2022/11/25 02:17:32;;;;;;;26.88;6.80;;;7.40;99.90;;;;;;4998710;28;20116;-72
2022/11/25 02:20:03;;;;;;;26.75;6.53;;;7.40;99.90;;;;;;5009286;28;20070;-72
2022/11/25 02:22:58;;;;;;;27.40;7.47;;;7.40;99.90;;;;;;5018387;28;20361;-72
2022/11/25 02:25:27;;;;;;;23.50;7.28;;;7.40;99.90;;;;;;5018100;28;20053;-72
2022/11/25 02:28:09;;;;;;;26.30;7.38;;;7.40;99.90;;;;;;5018240;28;20045;-71
2022/11/25 02:30:34;;;;;;;34.05;7.70;;;7.40;99.90;;;;;;5016573;28;20074;-71
2022/11/25 02:33:00;;;;;;;37.47;8.15;;;7.40;99.90;;;;;;5001102;28;20081;-72
2022/11/25 02:35:29;;;;;;;26.15;7.07;;;7.40;99.90;;;;;;5017126;28;20362;-72
2022/11/25 02:38:05;;;;;;;26.95;7.40;;;7.40;99.90;;;;;;5017865;28;20038;-71
2022/11/25 02:40:35;;;;;;;30.00;8.05;;;7.40;99.90;;;;;;5017657;28;20061;-71
2022/11/25 02:43:00;;;;;;;31.98;7.82;;;7.40;99.90;;;;;;5017095;28;20501;-71
2022/11/25 02:45:38;;;;;;;29.70;7.85;;;7.40;99.90;;;;;;5017837;28;20050;-71
2022/11/25 02:48:04;;;;;;;38.97;9.77;;;7.50;99.90;;;;;;5017506;28;20042;-71
2022/11/25 02:50:29;;;;;;;38.33;8.98;;;7.40;99.90;;;;;;5017248;28;20041;-71
2022/11/25 02:52:55;;;;;;;34.25;8.70;;;7.40;99.90;;;;;;5017290;28;20100;-71
2022/11/25 02:55:20;;;;;;;27.58;8.05;;;7.40;99.90;;;;;;5017586;28;20092;-71
2022/11/25 02:57:46;;;;;;;32.05;9.20;;;7.40;99.90;;;;;;5017673;28;20056;-71
2022/11/25 03:00:12;;;;;;;33.72;9.30;;;7.40;99.90;;;;;;5017501;28;20157;-71
2022/11/25 03:02:38;;;;;;;26.65;8.60;;;7.40;99.90;;;;;;5017454;28;20045;-71
2022/11/25 03:05:04;;;;;;;31.23;9.63;;;7.40;99.90;;;;;;5017437;28;20057;-72
2022/11/25 03:07:29;;;;;;;36.17;9.65;;;7.40;99.90;;;;;;5017164;28;20064;-72
2022/11/25 03:09:55;;;;;;;38.83;9.70;;;7.40;99.90;;;;;;5000090;28;20065;-72
2022/11/25 03:12:21;;;;;;;35.17;10.10;;;7.50;99.90;;;;;;5016908;28;20050;-71
2022/11/25 03:14:47;;;;;;;39.53;9.80;;;7.50;99.90;;;;;;5016722;28;20057;-71
2022/11/25 03:17:14;;;;;;;32.03;9.75;;;7.50;99.90;;;;;;5016893;28;20046;-71
2022/11/25 03:19:39;;;;;;;41.03;10.38;;;7.50;99.90;;;;;;5016507;28;20088;-71
2022/11/25 03:22:06;;;;;;;33.22;10.10;;;7.50;99.90;;;;;;5017198;28;20455;-72
2022/11/25 03:24:32;;;;;;;33.70;10.25;;;7.60;99.90;;;;;;5017504;28;20045;-72
2022/11/25 03:26:57;;;;;;;35.65;10.95;;;7.50;99.90;;;;;;5017092;28;20454;-72
2022/11/25 03:29:23;;;;;;;36.47;10.80;;;7.60;99.90;;;;;;5016823;28;20053;-71
2022/11/25 03:31:48;;;;;;;35.42;10.00;;;7.60;99.90;;;;;;5016764;28;20042;-71
2022/11/25 03:34:14;;;;;;;32.72;11.27;;;7.60;99.90;;;;;;5016672;28;20057;-72
2022/11/25 03:36:39;;;;;;;38.47;11.15;;;7.60;99.90;;;;;;5016282;28;20046;-71
2022/11/25 03:39:05;;;;;;;35.42;11.25;;;7.60;99.90;;;;;;5016604;28;20045;-71
2022/11/25 03:41:30;;;;;;;46.33;14.02;;;7.60;99.90;;;;;;5015730;28;20467;-71
2022/11/25 03:43:56;;;;;;;43.28;13.13;;;7.60;99.90;;;;;;5016431;28;20137;-72
2022/11/25 03:46:22;;;;;;;33.33;12.68;;;7.60;99.90;;;;;;5016662;28;20038;-71
2022/11/25 03:48:47;;;;;;;45.90;13.05;;;7.60;99.90;;;;;;5016576;28;20144;-72
2022/11/25 03:51:13;;;;;;;47.10;14.38;;;7.70;99.90;;;;;;5016149;28;20038;-71
2022/11/25 03:53:39;;;;;;;43.40;12.80;;;7.60;99.90;;;;;;5016737;28;20041;-71
2022/11/25 03:56:04;;;;;;;41.45;13.57;;;7.60;99.90;;;;;;5016579;28;20097;-71
2022/11/25 03:58:30;;;;;;;41.25;12.80;;;7.70;99.90;;;;;;5016577;28;20101;-72
2022/11/25 04:00:59;;;;;;;46.33;13.68;;;7.70;99.90;;;;;;5016483;28;20037;-71
2022/11/25 04:03:25;;;;;;;40.33;13.38;;;7.70;99.90;;;;;;5016568;28;20038;-72
2022/11/25 04:05:50;;;;;;;38.28;13.55;;;7.60;99.90;;;;;;5016098;28;20458;-71
2022/11/25 04:08:16;;;;;;;39.58;13.68;;;7.60;99.90;;;;;;5015843;28;20042;-71
2022/11/25 04:10:42;;;;;;;40.72;12.95;;;7.60;99.90;;;;;;5016366;28;20046;-71
2022/11/25 04:13:07;;;;;;;37.47;13.65;;;7.70;99.90;;;;;;5015897;28;20470;-71
2022/11/25 04:15:33;;;;;;;44.03;14.10;;;7.70;99.90;;;;;;5016240;28;20049;-71
2022/11/25 04:17:58;;;;;;;59.25;15.50;;;7.70;99.90;;;;;;5016640;28;20056;-72
2022/11/25 04:20:24;;;;;;;41.53;13.77;;;7.70;99.90;;;;;;5015667;28;20058;-72
2022/11/25 04:22:49;;;;;;;53.00;14.25;;;7.70;99.90;;;;;;5016020;28;20057;-71
2022/11/25 04:25:15;;;;;;;40.22;13.25;;;7.70;99.90;;;;;;5015506;28;20084;-71
2022/11/25 04:27:41;;;;;;;45.90;15.23;;;7.70;99.90;;;;;;5015768;28;20132;-71
2022/11/25 04:30:07;;;;;;;36.28;14.43;;;7.70;99.90;;;;;;5015550;28;20136;-71
2022/11/25 04:32:32;;;;;;;39.72;13.80;;;7.70;99.90;;;;;;4998852;28;20057;-72
2022/11/25 04:34:58;;;;;;;43.15;14.52;;;7.70;99.90;;;;;;5015746;28;20395;-71
2022/11/25 04:37:24;;;;;;;37.42;13.48;;;7.70;99.90;;;;;;5015541;28;20048;-71
2022/11/25 04:39:49;;;;;;;47.92;15.98;;;8.30;99.90;;;;;;5015903;28;20042;-71
2022/11/25 04:42:30;;;;;;;47.97;15.30;;;7.70;99.90;;;;;;5015812;28;20052;-71
2022/11/25 04:44:56;;;;;;;50.40;16.30;;;7.70;99.90;;;;;;5015483;28;20081;-72
2022/11/25 04:47:22;;;;;;;50.63;16.02;;;7.70;99.90;;;;;;4998124;28;20167;-71
2022/11/25 04:49:47;;;;;;;44.17;15.55;;;7.70;99.90;;;;;;4997575;28;20053;-71
2022/11/25 04:52:13;;;;;;;39.47;14.27;;;7.70;99.90;;;;;;5015838;28;20038;-72
2022/11/25 04:54:38;;;;;;;47.42;15.43;;;7.90;99.90;;;;;;5014903;28;20042;-72
2022/11/25 04:57:04;;;;;;;49.65;17.13;;;7.70;99.90;;;;;;5015189;28;20155;-72
2022/11/25 04:59:39;;;;;;;52.10;16.75;;;7.80;99.90;;;;;;5016580;28;20050;-70
2022/11/25 05:02:19;;;;;;;43.20;16.73;;;7.80;99.90;;;;;;5015287;28;20041;-71
2022/11/25 05:04:47;;;;;;;46.38;16.15;;;7.80;99.90;;;;;;5012350;28;20465;-71
2022/11/25 05:07:14;;;;;;;44.53;16.60;;;7.80;99.90;;;;;;5015515;28;20092;-72
2022/11/25 05:09:40;;;;;;;44.35;17.80;;;7.70;99.90;;;;;;5015117;28;20046;-70
2022/11/25 05:12:10;;;;;;;46.72;17.33;;;7.80;99.90;;;;;;5015358;28;20085;-70
2022/11/25 05:14:36;;;;;;;48.53;18.10;;;7.80;99.90;;;;;;5015336;28;20084;-70
2022/11/25 05:17:03;;;;;;;45.90;18.25;;;7.70;99.90;;;;;;5014616;28;20478;-71
2022/11/25 05:19:29;;;;;;;39.65;17.70;;;7.70;99.90;;;;;;5014647;28;20045;-71
2022/11/25 05:21:54;;;;;;;48.42;18.85;;;7.70;99.90;;;;;;5015066;28;20057;-71
2022/11/25 05:24:20;;;;;;;53.42;18.70;;;7.70;99.90;;;;;;5014884;28;20057;-71
2022/11/25 05:26:45;;;;;;;43.80;17.55;;;7.70;99.90;;;;;;5014933;28;20069;-71
2022/11/25 05:29:11;;;;;;;37.13;18.10;;;7.60;99.90;;;;;;5015307;28;20046;-71
2022/11/25 05:31:37;;;;;;;50.17;18.25;;;7.70;99.90;;;;;;5015378;28;20450;-71
2022/11/25 05:34:03;;;;;;;49.47;18.45;;;7.70;99.90;;;;;;5015395;28;20037;-71
2022/11/25 05:36:29;;;;;;;46.65;19.65;;;7.70;99.90;;;;;;5014399;28;20125;-71
2022/11/25 05:38:58;;;;;;;47.42;19.20;;;7.70;99.90;;;;;;5015138;28;20137;-71
2022/11/25 05:41:24;;;;;;;49.80;20.02;;;7.70;99.90;;;;;;5015351;28;20042;-71
2022/11/25 05:43:49;;;;;;;45.45;19.25;;;7.60;99.90;;;;;;5014861;28;20038;-71
2022/11/25 05:46:15;;;;;;;53.10;20.30;;;7.70;99.90;;;;;;5015108;28;20052;-72
2022/11/25 05:48:41;;;;;;;51.60;20.60;;;7.70;99.90;;;;;;5014691;28;20185;-72
2022/11/25 05:51:08;;;;;;;52.53;20.48;;;7.70;99.90;;;;;;5014748;28;20053;-72
2022/11/25 05:53:34;;;;;;;52.92;22.15;;;7.70;99.90;;;;;;5015085;28;20493;-72
2022/11/25 05:56:02;;;;;;;45.67;20.13;;;7.70;99.90;;;;;;5015113;28;20046;-71
2022/11/25 05:58:28;;;;;;;44.60;20.33;;;7.70;99.90;;;;;;5015649;28;20054;-72
2022/11/25 06:00:54;;;;;;;49.55;21.52;;;7.70;99.90;;;;;;5014937;28;20046;-71
2022/11/25 06:03:23;;;;;;;60.78;24.08;;;7.80;99.90;;;;;;5014827;28;20049;-72
2022/11/25 06:05:49;;;;;;;49.03;21.63;;;7.70;99.90;;;;;;5017952;28;20495;-71
2022/11/25 06:08:15;;;;;;;59.63;23.73;;;7.70;99.90;;;;;;5018233;28;20124;-71
2022/11/25 06:10:40;;;;;;;50.25;23.10;;;7.70;99.90;;;;;;5018714;28;20077;-71
2022/11/25 06:13:07;;;;;;;54.88;21.73;;;7.80;99.90;;;;;;5018399;28;20056;-72
2022/11/25 06:15:33;;;;;;;51.78;20.73;;;7.80;99.90;;;;;;5018884;28;20097;-71
2022/11/25 06:17:59;;;;;;;42.58;19.75;;;7.80;99.90;;;;;;5017942;28;20045;-71
2022/11/25 06:20:25;;;;;;;60.47;24.75;;;7.80;99.90;;;;;;5017373;28;20046;-71
2022/11/25 06:22:51;;;;;;;46.00;20.27;;;7.80;99.90;;;;;;5017771;28;20038;-71
2022/11/25 06:25:17;;;;;;;53.03;22.02;;;7.80;99.90;;;;;;5018261;28;20132;-72
2022/11/25 06:27:42;;;;;;;51.75;22.92;;;7.80;99.90;;;;;;5018293;28;20104;-71
2022/11/25 06:30:08;;;;;;;48.15;21.63;;;7.80;99.90;;;;;;5017799;28;20130;-71
2022/11/25 06:32:34;;;;;;;50.38;22.65;;;7.80;99.90;;;;;;5018861;28;20048;-71
2022/11/25 06:35:00;;;;;;;45.92;21.58;;;7.80;99.90;;;;;;5017735;28;20061;-72
2022/11/25 06:37:26;;;;;;;50.38;21.50;;;7.80;99.90;;;;;;4999729;28;20042;-71
2022/11/25 06:39:51;;;;;;;53.22;21.55;;;7.80;99.90;;;;;;5018441;28;20056;-71
2022/11/25 06:42:17;;;;;;;46.85;19.85;;;7.80;99.90;;;;;;5018108;28;20052;-71
2022/11/25 06:44:42;;;;;;;51.45;20.52;;;7.90;99.90;;;;;;5017880;28;20112;-71
2022/11/25 06:47:08;;;;;;;41.83;19.05;;;7.80;99.90;;;;;;5017754;28;20042;-71
2022/11/25 06:49:34;;;;;;;37.10;17.67;;;7.90;99.90;;;;;;5017235;28;20073;-71
2022/11/25 06:51:59;;;;;;;41.38;18.65;;;7.80;99.90;;;;;;5017849;28;20053;-71
2022/11/25 06:54:25;;;;;;;34.75;16.83;;;7.80;99.90;;;;;;5017468;28;20053;-71
2022/11/25 06:56:52;;;;;;;47.92;17.42;;;7.80;99.90;;;;;;5017624;28;20042;-71
2022/11/25 06:59:21;;;;;;;41.08;16.75;;;7.80;99.90;;;;;;5017341;28;20073;-71
2022/11/25 07:01:47;;;;;;;38.10;16.75;;;7.80;99.90;;;;;;5016763;28;20459;-71
2022/11/25 07:04:13;;;;;;;41.90;16.80;;;7.90;99.90;;;;;;5016801;28;20050;-71
2022/11/25 07:06:38;;;;;;;46.20;16.63;;;7.80;99.90;;;;;;5017375;28;20045;-73
2022/11/25 07:09:04;;;;;;;43.95;16.13;;;7.80;99.90;;;;;;5017319;28;20050;-72
2022/11/25 07:11:36;;;;;;;37.03;14.10;;;7.80;99.90;;;;;;5017159;28;20037;-73
2022/11/25 07:14:07;;;;;;;32.38;14.55;;;7.70;99.90;;;;;;5017008;28;20102;-73
2022/11/25 07:16:33;;;;;;;36.72;15.00;;;7.70;99.90;;;;;;5016489;28;20041;-72
2022/11/25 07:19:03;;;;;;;39.03;14.45;;;7.70;99.90;;;;;;5016817;28;20057;-71
2022/11/25 07:21:30;;;;;;;36.38;13.25;;;7.70;99.90;;;;;;5016742;28;20486;-72
2022/11/25 07:23:58;;;;;;;32.83;13.25;;;7.60;99.90;;;;;;5017076;28;20049;-72
2022/11/25 07:26:27;;;;;;;32.10;12.30;;;7.60;99.90;;;;;;5016748;28;20099;-71
2022/11/25 07:28:54;;;;;;;34.55;12.77;;;7.60;99.90;;;;;;5016887;28;20340;-71
2022/11/25 07:31:21;;;;;;;28.05;11.43;;;7.60;99.90;;;;;;5016609;28;20050;-71
2022/11/25 07:33:47;;;;;;;32.13;12.50;;;7.60;99.90;;;;;;5016189;28;20077;-71
2022/11/25 07:36:13;;;;;;;33.78;12.25;;;7.70;99.90;;;;;;5016711;28;20135;-71
2022/11/25 07:38:40;;;;;;;29.38;11.55;;;7.60;99.90;;;;;;5016690;28;20046;-71
2022/11/25 07:41:08;;;;;;;32.72;11.38;;;7.60;99.90;;;;;;5016549;28;20042;-72
2022/11/25 07:43:34;;;;;;;29.92;10.25;;;7.70;99.90;;;;;;5016814;28;20085;-71
2022/11/25 07:46:20;;;;;;;25.02;10.13;;;7.60;99.90;;;;;;5016362;28;20104;-71
2022/11/25 07:48:46;;;;;;;33.75;10.52;;;7.60;99.90;;;;;;5016079;28;20038;-71
2022/11/25 07:51:22;;;;;;;25.45;10.13;;;7.60;99.90;;;;;;5016322;28;20042;-71
2022/11/25 07:53:48;;;;;;;22.60;9.70;;;7.60;99.90;;;;;;5016163;28;20045;-71
2022/11/25 07:56:15;;;;;;;27.30;9.25;;;7.60;99.90;;;;;;5016006;28;20046;-71
2022/11/25 07:58:41;;;;;;;20.42;8.98;;;7.60;99.90;;;;;;5015709;28;20477;-71
2022/11/25 08:01:09;;;;;;;27.25;9.38;;;7.60;99.90;;;;;;5016295;28;20042;-71
2022/11/25 08:03:36;;;;;;;31.75;9.90;;;7.60;99.90;;;;;;5016057;28;20046;-71
2022/11/25 08:06:04;;;;;;;18.33;8.45;;;8.10;99.90;;;;;;5016320;28;20410;-71
2022/11/25 08:08:30;;;;;;;28.60;9.73;;;7.70;99.90;;;;;;4999218;28;20426;-71
2022/11/25 08:10:56;;;;;;;26.52;9.38;;;7.70;99.90;;;;;;5015987;28;20128;-71
2022/11/25 08:13:22;;;;;;;22.73;8.65;;;7.70;99.90;;;;;;5015956;28;20052;-71
2022/11/25 08:15:48;;;;;;;24.25;8.30;;;7.70;99.90;;;;;;5016016;28;20045;-73
2022/11/25 08:18:13;;;;;;;20.30;7.85;;;7.70;99.90;;;;;;5015721;28;20050;-71
2022/11/25 08:20:39;;;;;;;28.63;8.40;;;7.70;99.90;;;;;;5015919;28;20065;-71
2022/11/25 08:23:04;;;;;;;25.20;8.07;;;7.60;99.90;;;;;;4999195;28;20053;-71
2022/11/25 08:25:33;;;;;;;26.90;8.20;;;7.60;99.90;;;;;;5015953;28;20046;-71
2022/11/25 08:27:59;;;;;;;21.75;8.68;;;7.60;99.90;;;;;;5016105;28;20050;-71
2022/11/25 08:30:25;;;;;;;24.92;8.88;;;7.60;99.90;;;;;;5015852;28;20038;-71
2022/11/25 08:32:52;;;;;;;27.85;9.45;;;7.60;99.90;;;;;;5015386;28;20454;-71
2022/11/25 08:35:18;;;;;;;22.73;8.88;;;7.60;99.90;;;;;;4998848;28;20366;-71
2022/11/25 08:37:44;;;;;;;30.95;8.90;;;7.60;99.90;;;;;;5015743;28;20050;-71
2022/11/25 08:40:10;;;;;;;30.45;9.02;;;7.60;99.90;;;;;;5015458;28;20065;-71
2022/11/25 08:42:37;;;;;;;23.23;8.35;;;7.50;99.90;;;;;;5015438;28;20041;-71
2022/11/25 08:45:04;;;;;;;20.98;8.10;;;7.50;99.90;;;;;;4998805;28;20348;-71
2022/11/25 08:47:30;;;;;;;27.10;8.38;;;7.60;99.90;;;;;;5014834;28;20524;-71
2022/11/25 08:49:56;;;;;;;26.83;8.38;;;7.60;99.90;;;;;;5014546;28;20073;-71
2022/11/25 08:52:22;;;;;;;23.80;9.23;;;7.70;99.90;;;;;;5014149;28;20493;-71
2022/11/25 08:54:48;;;;;;;30.38;9.02;;;7.60;99.90;;;;;;5014963;28;20046;-71
2022/11/25 08:57:14;;;;;;;24.50;8.50;;;7.60;99.90;;;;;;5015362;28;20049;-71
2022/11/25 08:59:40;;;;;;;25.58;10.55;;;7.70;99.90;;;;;;5015803;28;20359;-71
2022/11/25 09:02:07;;;;;;;25.92;9.88;;;7.70;99.90;;;;;;5015159;28;20052;-71
2022/11/25 09:04:33;;;;;;;25.48;9.05;;;7.70;99.90;;;;;;5015124;28;20048;-71
2022/11/25 09:06:59;;;;;;;20.25;8.70;;;7.80;99.90;;;;;;5015504;28;20046;-71
2022/11/25 09:09:25;;;;;;;23.95;9.45;;;7.80;99.90;;;;;;5014807;28;20045;-71
2022/11/25 09:11:51;;;;;;;21.10;9.23;;;8.00;99.90;;;;;;5015197;28;20049;-71
2022/11/25 09:14:16;;;;;;;18.05;9.25;;;7.90;99.90;;;;;;5014928;28;20573;-70
2022/11/25 09:16:42;;;;;;;26.23;10.55;;;7.90;99.90;;;;;;5015183;28;20056;-71
2022/11/25 09:19:07;;;;;;;22.50;9.23;;;7.90;99.90;;;;;;5015257;28;20092;-71
2022/11/25 09:21:33;;;;;;;22.58;9.38;;;7.90;99.90;;;;;;5014790;28;20054;-71
2022/11/25 09:23:58;;;;;;;20.13;9.73;;;7.90;99.90;;;;;;5015201;28;20056;-71
2022/11/25 09:26:30;;;;;;;23.48;9.02;;;7.90;99.90;;;;;;5014956;28;20470;-71
2022/11/25 09:28:56;;;;;;;20.42;8.32;;;7.90;99.90;;;;;;5015194;28;20038;-71
2022/11/25 09:31:22;;;;;;;20.55;9.45;;;7.90;99.90;;;;;;5015303;28;20073;-71
2022/11/25 09:33:48;;;;;;;23.35;9.63;;;8.00;99.90;;;;;;5015048;28;20470;-71
2022/11/25 09:36:16;;;;;;;23.63;9.60;;;8.00;99.90;;;;;;5014255;28;20463;-71
2022/11/25 09:38:43;;;;;;;18.85;9.15;;;8.00;99.90;;;;;;5014814;28;20045;-71
2022/11/25 09:46:40;;;;;;;19.70;9.40;;;8.00;99.90;;;;;;5019365;28;20121;-72
2022/11/25 09:47:51;;;;;;;19.52;9.10;;;8.00;99.90;;;;;;5018737;28;20053;-71
2022/11/25 09:50:42;;;;;;;23.55;9.18;;;8.10;99.90;;;;;;4989073;28;20470;-71
2022/11/25 09:53:29;;;;;;;21.95;8.50;;;8.10;99.90;;;;;;5018285;28;20042;-72
2022/11/25 09:56:07;;;;;;;23.20;8.52;;;8.10;99.90;;;;;;5018465;28;20148;-72
2022/11/25 09:58:37;;;;;;;14.73;7.43;;;8.10;99.90;;;;;;5018538;28;20056;-71
2022/11/25 10:01:13;;;;;;;20.98;8.38;;;8.10;99.90;;;;;;5018295;28;20049;-71
2022/11/25 10:03:55;;;;;;;18.98;8.63;;;8.20;99.90;;;;;;5018257;28;20057;-71
2022/11/25 10:06:24;;;;;;;18.35;8.13;;;8.20;99.90;;;;;;5018068;28;20046;-71
2022/11/25 10:08:59;;;;;;;24.45;9.38;;;8.20;99.90;;;;;;5017854;28;20493;-72
2022/11/25 10:11:37;;;;;;;22.05;8.93;;;8.20;99.90;;;;;;5018510;28;20039;-72
2022/11/25 10:14:22;;;;;;;17.23;8.48;;;8.20;99.90;;;;;;5017951;28;20054;-72
2022/11/25 10:17:19;;;;;;;16.83;7.20;;;8.30;99.90;;;;;;5018278;28;20045;-71
2022/11/25 10:20:16;;;;;;;19.23;7.78;;;8.30;99.90;;;;;;5017754;28;20046;-71
2022/11/25 10:22:52;;;;;;;21.92;7.90;;;8.30;99.90;;;;;;5017872;28;20353;-72
2022/11/25 10:25:28;;;;;;;16.52;7.47;;;8.40;99.90;;;;;;5018376;28;20054;-71
2022/11/25 10:28:28;;;;;;;17.05;7.63;;;8.40;99.90;;;;;;5018130;28;20049;-72
2022/11/25 10:31:02;;;;;;;19.98;7.20;;;8.50;99.90;;;;;;5018355;28;20092;-71
2022/11/25 10:33:36;;;;;;;14.30;6.80;;;8.50;99.90;;;;;;5017978;28;20128;-71
2022/11/25 10:36:02;;;;;;;20.17;7.75;;;8.50;99.90;;;;;;5017652;28;20054;-72
2022/11/25 10:38:52;;;;;;;17.40;7.95;;;8.50;99.90;;;;;;5017879;28;20473;-72
2022/11/25 10:41:22;;;;;;;18.52;8.45;;;8.50;99.90;;;;;;5017868;28;20061;-71
2022/11/25 10:43:48;;;;;;;21.15;8.50;;;8.60;99.90;;;;;;5017913;28;20053;-71
2022/11/25 10:46:32;;;;;;;20.42;7.95;;;9.00;99.90;;;;;;5017738;28;20042;-71
2022/11/25 10:49:13;;;;;;;15.50;7.15;;;8.70;99.90;;;;;;5018242;28;20139;-72
2022/11/25 10:51:49;;;;;;;20.20;7.45;;;8.70;99.90;;;;;;5015925;28;20355;-72
2022/11/25 10:54:21;;;;;;;20.35;7.22;;;8.70;99.90;;;;;;5017437;28;20042;-71
2022/11/25 10:57:01;;;;;;;19.52;6.90;;;8.80;99.90;;;;;;5017575;28;20037;-71
2022/11/25 10:59:32;;;;;;;17.83;7.07;;;8.80;99.90;;;;;;5017195;28;20121;-71
2022/11/25 11:02:22;;;;;;;17.10;6.60;;;8.80;99.90;;;;;;5016980;28;20467;-72
2022/11/25 11:04:59;;;;;;;18.50;7.35;;;8.90;99.90;;;;;;5017435;28;20053;-71
2022/11/25 11:07:27;;;;;;;14.88;6.85;;;9.00;99.90;;;;;;5000754;28;20096;-72
2022/11/25 11:09:53;;;;;;;19.90;6.47;;;9.20;99.90;;;;;;5017753;28;20405;-72
2022/11/25 11:12:26;;;;;;;18.80;6.88;;;9.30;99.90;;;;;;5016831;28;20471;-72
2022/11/25 11:15:12;;;;;;;24.90;6.60;;;9.40;99.90;;;;;;5016753;28;20042;-71
2022/11/25 11:17:38;;;;;;;16.38;6.38;;;9.40;99.90;;;;;;5016858;28;20477;-72
2022/11/25 11:20:06;;;;;;;18.65;5.63;;;9.50;99.90;;;;;;4983624;28;20058;-72
2022/11/25 11:22:44;;;;;;;15.63;5.40;;;9.60;99.90;;;;;;5017314;28;20129;-72
2022/11/25 11:25:18;;;;;;;17.48;6.53;;;9.60;99.90;;;;;;5016872;28;20133;-72
2022/11/25 11:27:44;;;;;;;16.70;5.10;;;9.60;99.90;;;;;;5016457;28;20041;-72
2022/11/25 11:30:15;;;;;;;16.38;5.78;;;9.70;99.90;;;;;;5016862;28;20363;-72
2022/11/25 11:32:52;;;;;;;17.50;4.80;;;9.50;99.90;;;;;;5016853;28;20457;-72
2022/11/25 11:35:24;;;;;;;17.23;4.68;;;9.50;99.90;;;;;;5016966;28;20366;-72
2022/11/25 11:37:53;;;;;;;16.73;4.85;;;9.50;99.90;;;;;;5016742;28;20423;-72
2022/11/25 11:40:45;;;;;;;20.05;4.93;;;9.40;99.90;;;;;;5017238;28;20045;-71
2022/11/25 11:43:29;;;;;;;14.70;4.63;;;9.40;99.90;;;;;;5008955;28;20051;-72
2022/11/25 11:46:25;;;;;;;18.23;4.97;;;9.40;99.90;;;;;;4996976;28;20466;-72
2022/11/25 11:49:17;;;;;;;18.38;4.60;;;9.50;99.90;;;;;;4997027;28;20098;-72
2022/11/25 11:51:59;;;;;;;21.38;5.07;;;9.50;99.90;;;;;;4996535;28;20052;-72
2022/11/25 11:54:24;;;;;;;15.57;4.88;;;9.50;99.90;;;;;;4980111;28;20054;-72
2022/11/25 11:56:59;;;;;;;18.63;5.15;;;9.50;99.90;;;;;;4996429;28;20478;-72
2022/11/25 11:59:51;;;;;;;15.85;4.53;;;9.60;99.90;;;;;;4996678;28;20092;-72
2022/11/25 12:02:42;;;;;;;17.88;4.95;;;9.60;99.90;;;;;;4996340;28;20407;-71
2022/11/25 12:05:10;;;;;;;18.58;4.65;;;9.70;99.90;;;;;;4996721;28;20050;-72
2022/11/25 12:08:05;;;;;;;16.73;4.68;;;9.90;99.90;;;;;;4996662;28;20042;-71
2022/11/25 12:10:44;;;;;;;19.48;4.65;;;9.80;99.90;;;;;;4996368;28;20053;-72
2022/11/25 12:13:29;;;;;;;16.70;4.18;;;9.70;99.90;;;;;;5007257;28;20073;-72
2022/11/25 12:16:16;;;;;;;18.63;5.20;;;9.70;99.90;;;;;;4998947;28;20054;-72
2022/11/25 12:19:19;;;;;;;28.05;5.40;;;9.70;99.90;;;;;;5016139;28;20112;-70
2022/11/25 12:22:18;;;;;;;20.20;4.77;;;9.70;99.90;;;;;;4978145;28;20054;-72
2022/11/25 12:24:57;;;;;;;16.83;4.70;;;9.80;99.90;;;;;;4998741;28;20129;-72
2022/11/25 12:27:28;;;;;;;19.40;4.97;;;10.20;99.90;;;;;;4982001;28;20120;-71
2022/11/25 12:30:06;;;;;;;17.98;4.63;;;10.00;99.90;;;;;;5015679;28;20045;-72
2022/11/25 12:32:53;;;;;;;23.17;5.00;;;10.00;99.90;;;;;;5015851;28;20088;-72
2022/11/25 12:35:43;;;;;;;17.55;4.95;;;10.00;99.90;;;;;;5016122;28;20050;-71
2022/11/25 12:38:17;;;;;;;13.80;3.97;;;10.00;99.90;;;;;;5015786;28;20088;-71
2022/11/25 12:40:53;;;;;;;13.82;4.07;;;9.90;99.90;;;;;;5015703;28;20038;-71
2022/11/25 12:43:48;;;;;;;12.68;4.70;;;10.20;99.90;;;;;;4998584;28;20058;-71
2022/11/25 12:46:23;;;;;;;19.48;4.82;;;9.90;99.90;;;;;;4995767;28;20081;-72
2022/11/25 12:48:50;;;;;;;16.25;4.43;;;9.90;99.90;;;;;;4995843;28;20069;-72
2022/11/25 12:51:29;;;;;;;15.15;4.38;;;9.90;99.90;;;;;;4995663;28;20053;-73
2022/11/25 12:54:06;;;;;;;18.08;4.68;;;9.90;99.90;;;;;;4995757;28;20034;-72
2022/11/25 12:56:54;;;;;;;18.23;4.78;;;10.00;99.90;;;;;;4995408;28;20031;-72
2022/11/25 12:59:28;;;;;;;18.02;4.50;;;9.90;99.90;;;;;;4978630;28;20499;-72
2022/11/25 13:02:21;;;;;;;18.77;4.35;;;9.80;99.90;;;;;;4995768;28;20056;-72
2022/11/25 13:04:56;;;;;;;18.33;4.35;;;9.80;99.90;;;;;;4995974;28;20046;-73